Seven Seas Voyager — C6SW3 — position and weather

sailwx.info

Track history (hours):
 
Tides and Currents Weather Stations Pressure Air Temp Water Temp Dewpoint Dewpoint Depression Visibility Wind Speed Wind Dir Waves Ship Positions

Seven Seas Voyager

Last reported at 2020-Sep-19 07:27 UTC. Time now 2020-Sep-19 08:35 UTC.
Position N 43°33' E 010°18'.

Length 205 m; draft 7 m.

Type: Ship. MMSI: 31151000.

Date/timePositionNaut miles runAvg speedWind from/ knotsBaromVisibWave heightAir tempDewpointWater temp
2020-Sep-19 07:27N 43°33' E 010°18'0 0.0
2020-Sep-19 06:57N 43°33' E 010°18'0 0.0
2020-Sep-19 04:57N 43°33' E 010°18'0 0.0
2020-Sep-19 04:27N 43°33' E 010°18'0 0.0
2020-Sep-19 02:27N 43°33' E 010°18'0 0.0
2020-Sep-19 01:27N 43°33' E 010°18'0 0.0
2020-Sep-18 23:27N 43°33' E 010°18'0 0.0
2020-Sep-18 22:27N 43°33' E 010°18'0 0.0
2020-Sep-18 19:57N 43°33' E 010°18'0 0.0
2020-Sep-18 18:57N 43°33' E 010°18'0 0.0
2020-Sep-18 17:57N 43°33' E 010°18'0 0.0
2020-Sep-18 14:57N 43°33' E 010°18'0 0.0
2020-Sep-18 13:27N 43°33' E 010°18'0 0.0
2020-Sep-18 10:27N 43°33' E 010°18'0 0.0
2020-Sep-18 07:27N 43°33' E 010°18'0 0.0
2020-Sep-18 06:57N 43°33' E 010°18'0 0.0
2020-Sep-18 04:57N 43°33' E 010°18'0 0.0
2020-Sep-18 02:57N 43°33' E 010°18'0 0.0
2020-Sep-18 01:27N 43°33' E 010°18'0 0.0
2020-Sep-18 00:57N 43°33' E 010°18'0 0.0
2020-Sep-17 19:27N 43°33' E 010°18'0 0.0
2020-Sep-17 16:57N 43°33' E 010°18'2 1.2
2020-Sep-17 15:30N 43°32' E 010°16'9 9.4
2020-Sep-17 14:30N 43°30' E 010°03'18 7.3
2020-Sep-17 12:00N 43°42' E 009°45'18 4.4
2020-Sep-17 08:00N 43°58' E 009°53'0 0.0
2020-Sep-17 07:30N 43°58' E 009°53'0 0.0
2020-Sep-17 07:00N 43°58' E 009°53'0 0.0
2020-Sep-17 06:30N 43°58' E 009°53'15 5.2
2020-Sep-17 03:30N 43°44' E 009°47'4 8.0
2020-Sep-17 03:00N 43°41' E 009°43'10 6.6
2020-Sep-17 01:30N 43°39' E 009°29'4 7.6
2020-Sep-17 01:00N 43°41' E 009°24'4 7.5
2020-Sep-17 00:30N 43°44' E 009°22'4 7.6
2020-Sep-17 00:00N 43°47' E 009°24'22 6.3
2020-Sep-16 20:30N 43°34' E 009°49'14 7.2
2020-Sep-16 18:30N 43°30' E 010°08'4 7.4
2020-Sep-16 18:00N 43°31' E 010°13'4 4.2
2020-Sep-16 17:00N 43°33' E 010°18'0 0.0
2020-Sep-16 16:27N 43°33' E 010°18'0 0.0
2020-Sep-16 11:57N 43°33' E 010°18'0 0.0
2020-Sep-16 06:57N 43°33' E 010°18'0 0.0
2020-Sep-16 04:57N 43°33' E 010°18'0 0.0
2020-Sep-16 04:27N 43°33' E 010°18'0 0.0
2020-Sep-16 03:57N 43°33' E 010°18'0 0.0
2020-Sep-16 02:57N 43°33' E 010°18'0 0.0
2020-Sep-15 23:57N 43°33' E 010°18'0 0.0
2020-Sep-15 23:27N 43°33' E 010°18'0 0.0
2020-Sep-15 22:27N 43°33' E 010°18'0 0.0
2020-Sep-15 20:27N 43°33' E 010°18'0 0.0
2020-Sep-15 13:57N 43°33' E 010°18'0 0.0
2020-Sep-15 13:27N 43°33' E 010°18'0 0.0
2020-Sep-15 11:57N 43°33' E 010°18'0 0.0
2020-Sep-15 09:27N 43°33' E 010°18'0 0.0
2020-Sep-15 07:21N 43°33' E 010°18'0 0.0
2020-Sep-15 05:27N 43°33' E 010°18'0 0.0
2020-Sep-15 02:57N 43°33' E 010°18'0 0.0
2020-Sep-15 02:27N 43°33' E 010°18'5 1.1
2020-Sep-14 22:00N 43°30' E 010°12'0 0.0 050 / 101023.0 25.017.5
2020-Sep-14 21:00N 43°30' E 010°12'5379.1 050 / 101023.0 25.017.5
2020-Sep-14 20:59N 43°33' E 010°18'5 5.1
2020-Sep-14 20:00N 43°30' E 010°12'5239.4 050 / 101023.0 25.017.5
2020-Sep-14 19:58N 43°33' E 010°18'0 0.0
2020-Sep-14 14:28N 43°33' E 010°18'0 0.0
2020-Sep-14 12:28N 43°33' E 010°18'0 0.0
2020-Sep-14 09:58N 43°33' E 010°18'0 0.0
2020-Sep-14 06:28N 43°33' E 010°18'0 0.0
2020-Sep-14 05:28N 43°33' E 010°18'0 0.0
2020-Sep-14 04:56N 43°33' E 010°18'0 0.0
2020-Sep-14 03:56N 43°33' E 010°18'0 0.0
2020-Sep-14 03:26N 43°33' E 010°18'0 0.0
2020-Sep-14 02:56N 43°33' E 010°18'0 0.0
2020-Sep-14 02:26N 43°33' E 010°18'0 0.0
2020-Sep-14 00:56N 43°33' E 010°18'0 0.0
2020-Sep-13 22:26N 43°33' E 010°18'0 0.0
2020-Sep-13 21:56N 43°33' E 010°18'0 0.0
2020-Sep-13 21:26N 43°33' E 010°18'511.5
2020-Sep-13 21:00N 43°30' E 010°12'0 0.0 070 / 111020.0 23.018.5
2020-Sep-13 20:00N 43°30' E 010°12'5 1.2 070 / 141020.0 24.021.1
2020-Sep-13 15:56N 43°33' E 010°18'0 0.0
2020-Sep-13 15:26N 43°33' E 010°18'0 0.0
2020-Sep-13 14:26N 43°33' E 010°18'0 0.0
2020-Sep-13 13:26N 43°33' E 010°18'0 0.0
2020-Sep-13 08:56N 43°33' E 010°18'0 0.0
2020-Sep-13 08:26N 43°33' E 010°18'0 0.0
2020-Sep-13 04:56N 43°33' E 010°18'0 0.0
2020-Sep-13 04:26N 43°33' E 010°18'0 0.0
2020-Sep-13 03:56N 43°33' E 010°18'0 0.0
2020-Sep-13 01:56N 43°33' E 010°18'0 0.0
2020-Sep-12 23:26N 43°33' E 010°18'0 0.0
2020-Sep-12 20:56N 43°33' E 010°18'0 0.0
2020-Sep-12 20:26N 43°33' E 010°18'0 0.0
2020-Sep-12 19:26N 43°33' E 010°18'0 0.0
2020-Sep-12 17:26N 43°33' E 010°18'0 0.0
2020-Sep-12 15:56N 43°33' E 010°18'0 0.0
2020-Sep-12 15:26N 43°33' E 010°18'0 0.0
2020-Sep-12 14:26N 43°33' E 010°18'0 0.0
2020-Sep-12 09:56N 43°33' E 010°18'0 0.0
2020-Sep-12 08:26N 43°33' E 010°18'0 0.0
2020-Sep-12 06:26N 43°33' E 010°18'0 0.0
2020-Sep-12 04:56N 43°33' E 010°18'0 0.0
2020-Sep-12 04:26N 43°33' E 010°18'0 0.0
2020-Sep-12 01:26N 43°33' E 010°18'0 0.0
2020-Sep-11 23:56N 43°33' E 010°18'0 0.0
2020-Sep-11 22:26N 43°33' E 010°18'5 2.1
2020-Sep-11 20:00N 43°30' E 010°12'5 4.8 1012.0 27.024.3
2020-Sep-11 18:56N 43°33' E 010°18'0 0.0
2020-Sep-11 10:56N 43°33' E 010°18'0 0.0
2020-Sep-11 08:56N 43°33' E 010°18'0 0.0
2020-Sep-11 08:26N 43°33' E 010°18'0 0.0
2020-Sep-11 07:56N 43°33' E 010°18'0 0.0
2020-Sep-11 06:26N 43°33' E 010°18'0 0.0
2020-Sep-11 05:56N 43°33' E 010°18'0 0.0
2020-Sep-11 03:50N 43°33' E 010°18'0 0.0
2020-Sep-11 03:26N 43°33' E 010°18'0 0.0
2020-Sep-10 23:26N 43°33' E 010°18'0 0.0
2020-Sep-10 21:56N 43°33' E 010°18'0 0.0
2020-Sep-10 21:26N 43°33' E 010°18'0 0.0
2020-Sep-10 20:56N 43°33' E 010°18'0 0.0
2020-Sep-10 19:26N 43°33' E 010°18'0 0.0
2020-Sep-10 14:26N 43°33' E 010°18'0 0.0
2020-Sep-10 11:26N 43°33' E 010°18'0 0.0
2020-Sep-10 10:56N 43°33' E 010°18'0 0.0
2020-Sep-10 09:26N 43°33' E 010°18'0 0.0
2020-Sep-10 07:56N 43°33' E 010°18'0 0.0
2020-Sep-10 04:56N 43°33' E 010°18'0 0.0
2020-Sep-10 03:26N 43°33' E 010°18'0 0.0
2020-Sep-10 01:26N 43°33' E 010°18'0 0.0
2020-Sep-09 22:56N 43°33' E 010°18'0 0.0
2020-Sep-09 19:26N 43°33' E 010°18'0 0.0
2020-Sep-09 17:56N 43°33' E 010°18'0 0.0
2020-Sep-09 17:20N 43°33' E 010°18'0 0.0
2020-Sep-09 15:57N 43°33' E 010°18'0 0.0
2020-Sep-09 12:57N 43°33' E 010°18'0 0.0
2020-Sep-09 10:57N 43°33' E 010°18'0 0.0
2020-Sep-09 09:21N 43°33' E 010°18'0 0.1
2020-Sep-09 08:57N 43°33' E 010°18'0 0.0
2020-Sep-09 07:57N 43°33' E 010°18'  
Track history (hours):
 
Tides and Currents Weather Stations Pressure Air Temp Water Temp Dewpoint Dewpoint Depression Visibility Wind Speed Wind Dir Waves Ship Positions

Seven Seas Voyager

Last reported at 2020-Sep-19 07:27 UTC. Time now 2020-Sep-19 08:35 UTC.
Position N 43°33' E 010°18'.

Length 205 m; draft 7 m.

Type: Ship. MMSI: 31151000.

Date/timePositionNaut miles runAvg speedWind from/ knotsBaromVisibWave heightAir tempDewpointWater temp
2020-Sep-19 07:27N 43°33' E 010°18'0 0.0
2020-Sep-19 06:57N 43°33' E 010°18'0 0.0
2020-Sep-19 04:57N 43°33' E 010°18'0 0.0
2020-Sep-19 04:27N 43°33' E 010°18'0 0.0
2020-Sep-19 02:27N 43°33' E 010°18'0 0.0
2020-Sep-19 01:27N 43°33' E 010°18'0 0.0
2020-Sep-18 23:27N 43°33' E 010°18'0 0.0
2020-Sep-18 22:27N 43°33' E 010°18'0 0.0
2020-Sep-18 19:57N 43°33' E 010°18'0 0.0
2020-Sep-18 18:57N 43°33' E 010°18'0 0.0
2020-Sep-18 17:57N 43°33' E 010°18'0 0.0
2020-Sep-18 14:57N 43°33' E 010°18'0 0.0
2020-Sep-18 13:27N 43°33' E 010°18'0 0.0
2020-Sep-18 10:27N 43°33' E 010°18'0 0.0
2020-Sep-18 07:27N 43°33' E 010°18'0 0.0
2020-Sep-18 06:57N 43°33' E 010°18'0 0.0
2020-Sep-18 04:57N 43°33' E 010°18'0 0.0
2020-Sep-18 02:57N 43°33' E 010°18'0 0.0
2020-Sep-18 01:27N 43°33' E 010°18'0 0.0
2020-Sep-18 00:57N 43°33' E 010°18'0 0.0
2020-Sep-17 19:27N 43°33' E 010°18'0 0.0
2020-Sep-17 16:57N 43°33' E 010°18'2 1.2
2020-Sep-17 15:30N 43°32' E 010°16'9 9.4
2020-Sep-17 14:30N 43°30' E 010°03'18 7.3
2020-Sep-17 12:00N 43°42' E 009°45'18 4.4
2020-Sep-17 08:00N 43°58' E 009°53'0 0.0
2020-Sep-17 07:30N 43°58' E 009°53'0 0.0
2020-Sep-17 07:00N 43°58' E 009°53'0 0.0
2020-Sep-17 06:30N 43°58' E 009°53'15 5.2
2020-Sep-17 03:30N 43°44' E 009°47'4 8.0
2020-Sep-17 03:00N 43°41' E 009°43'10 6.6
2020-Sep-17 01:30N 43°39' E 009°29'4 7.6
2020-Sep-17 01:00N 43°41' E 009°24'4 7.5
2020-Sep-17 00:30N 43°44' E 009°22'4 7.6
2020-Sep-17 00:00N 43°47' E 009°24'22 6.3
2020-Sep-16 20:30N 43°34' E 009°49'14 7.2
2020-Sep-16 18:30N 43°30' E 010°08'4 7.4
2020-Sep-16 18:00N 43°31' E 010°13'4 4.2
2020-Sep-16 17:00N 43°33' E 010°18'0 0.0
2020-Sep-16 16:27N 43°33' E 010°18'0 0.0
2020-Sep-16 11:57N 43°33' E 010°18'0 0.0
2020-Sep-16 06:57N 43°33' E 010°18'0 0.0
2020-Sep-16 04:57N 43°33' E 010°18'0 0.0
2020-Sep-16 04:27N 43°33' E 010°18'0 0.0
2020-Sep-16 03:57N 43°33' E 010°18'0 0.0
2020-Sep-16 02:57N 43°33' E 010°18'0 0.0
2020-Sep-15 23:57N 43°33' E 010°18'0 0.0
2020-Sep-15 23:27N 43°33' E 010°18'0 0.0
2020-Sep-15 22:27N 43°33' E 010°18'0 0.0
2020-Sep-15 20:27N 43°33' E 010°18'0 0.0
2020-Sep-15 13:57N 43°33' E 010°18'0 0.0
2020-Sep-15 13:27N 43°33' E 010°18'0 0.0
2020-Sep-15 11:57N 43°33' E 010°18'0 0.0
2020-Sep-15 09:27N 43°33' E 010°18'0 0.0
2020-Sep-15 07:21N 43°33' E 010°18'0 0.0
2020-Sep-15 05:27N 43°33' E 010°18'0 0.0
2020-Sep-15 02:57N 43°33' E 010°18'0 0.0
2020-Sep-15 02:27N 43°33' E 010°18'5 1.1
2020-Sep-14 22:00N 43°30' E 010°12'0 0.0 050 / 101023.0 25.017.5
2020-Sep-14 21:00N 43°30' E 010°12'5379.1 050 / 101023.0 25.017.5
2020-Sep-14 20:59N 43°33' E 010°18'5 5.1
2020-Sep-14 20:00N 43°30' E 010°12'5239.4 050 / 101023.0 25.017.5
2020-Sep-14 19:58N 43°33' E 010°18'0 0.0
2020-Sep-14 14:28N 43°33' E 010°18'0 0.0
2020-Sep-14 12:28N 43°33' E 010°18'0 0.0
2020-Sep-14 09:58N 43°33' E 010°18'0 0.0
2020-Sep-14 06:28N 43°33' E 010°18'0 0.0
2020-Sep-14 05:28N 43°33' E 010°18'0 0.0
2020-Sep-14 04:56N 43°33' E 010°18'0 0.0
2020-Sep-14 03:56N 43°33' E 010°18'0 0.0
2020-Sep-14 03:26N 43°33' E 010°18'0 0.0
2020-Sep-14 02:56N 43°33' E 010°18'0 0.0
2020-Sep-14 02:26N 43°33' E 010°18'0 0.0
2020-Sep-14 00:56N 43°33' E 010°18'0 0.0
2020-Sep-13 22:26N 43°33' E 010°18'0 0.0
2020-Sep-13 21:56N 43°33' E 010°18'0 0.0
2020-Sep-13 21:26N 43°33' E 010°18'511.5
2020-Sep-13 21:00N 43°30' E 010°12'0 0.0 070 / 111020.0 23.018.5
2020-Sep-13 20:00N 43°30' E 010°12'5 1.2 070 / 141020.0 24.021.1
2020-Sep-13 15:56N 43°33' E 010°18'0 0.0
2020-Sep-13 15:26N 43°33' E 010°18'0 0.0
2020-Sep-13 14:26N 43°33' E 010°18'0 0.0
2020-Sep-13 13:26N 43°33' E 010°18'0 0.0
2020-Sep-13 08:56N 43°33' E 010°18'0 0.0
2020-Sep-13 08:26N 43°33' E 010°18'0 0.0
2020-Sep-13 04:56N 43°33' E 010°18'0 0.0
2020-Sep-13 04:26N 43°33' E 010°18'0 0.0
2020-Sep-13 03:56N 43°33' E 010°18'0 0.0
2020-Sep-13 01:56N 43°33' E 010°18'0 0.0
2020-Sep-12 23:26N 43°33' E 010°18'0 0.0
2020-Sep-12 20:56N 43°33' E 010°18'0 0.0
2020-Sep-12 20:26N 43°33' E 010°18'0 0.0
2020-Sep-12 19:26N 43°33' E 010°18'0 0.0
2020-Sep-12 17:26N 43°33' E 010°18'0 0.0
2020-Sep-12 15:56N 43°33' E 010°18'0 0.0
2020-Sep-12 15:26N 43°33' E 010°18'0 0.0
2020-Sep-12 14:26N 43°33' E 010°18'0 0.0
2020-Sep-12 09:56N 43°33' E 010°18'0 0.0
2020-Sep-12 08:26N 43°33' E 010°18'0 0.0
2020-Sep-12 06:26N 43°33' E 010°18'0 0.0
2020-Sep-12 04:56N 43°33' E 010°18'0 0.0
2020-Sep-12 04:26N 43°33' E 010°18'0 0.0
2020-Sep-12 01:26N 43°33' E 010°18'0 0.0
2020-Sep-11 23:56N 43°33' E 010°18'0 0.0
2020-Sep-11 22:26N 43°33' E 010°18'5 2.1
2020-Sep-11 20:00N 43°30' E 010°12'5 4.8 1012.0 27.024.3
2020-Sep-11 18:56N 43°33' E 010°18'0 0.0
2020-Sep-11 10:56N 43°33' E 010°18'0 0.0
2020-Sep-11 08:56N 43°33' E 010°18'0 0.0
2020-Sep-11 08:26N 43°33' E 010°18'0 0.0
2020-Sep-11 07:56N 43°33' E 010°18'0 0.0
2020-Sep-11 06:26N 43°33' E 010°18'0 0.0
2020-Sep-11 05:56N 43°33' E 010°18'0 0.0
2020-Sep-11 03:50N 43°33' E 010°18'0 0.0
2020-Sep-11 03:26N 43°33' E 010°18'0 0.0
2020-Sep-10 23:26N 43°33' E 010°18'0 0.0
2020-Sep-10 21:56N 43°33' E 010°18'0 0.0
2020-Sep-10 21:26N 43°33' E 010°18'0 0.0
2020-Sep-10 20:56N 43°33' E 010°18'0 0.0
2020-Sep-10 19:26N 43°33' E 010°18'0 0.0
2020-Sep-10 14:26N 43°33' E 010°18'0 0.0
2020-Sep-10 11:26N 43°33' E 010°18'0 0.0
2020-Sep-10 10:56N 43°33' E 010°18'0 0.0
2020-Sep-10 09:26N 43°33' E 010°18'0 0.0
2020-Sep-10 07:56N 43°33' E 010°18'0 0.0
2020-Sep-10 04:56N 43°33' E 010°18'0 0.0
2020-Sep-10 03:26N 43°33' E 010°18'0 0.0
2020-Sep-10 01:26N 43°33' E 010°18'0 0.0
2020-Sep-09 22:56N 43°33' E 010°18'0 0.0
2020-Sep-09 19:26N 43°33' E 010°18'0 0.0
2020-Sep-09 17:56N 43°33' E 010°18'0 0.0
2020-Sep-09 17:20N 43°33' E 010°18'0 0.0
2020-Sep-09 15:57N 43°33' E 010°18'0 0.0
2020-Sep-09 12:57N 43°33' E 010°18'0 0.0
2020-Sep-09 10:57N 43°33' E 010°18'0 0.0
2020-Sep-09 09:21N 43°33' E 010°18'0 0.1
2020-Sep-09 08:57N 43°33' E 010°18'0 0.0
2020-Sep-09 07:57N 43°33' E 010°18'  

Dump ship's entire track history